createdAt,value
2022-08-26T00:01:56.062Z,5.63
2022-08-26T00:04:23.643Z,6.33
2022-08-26T00:06:50.352Z,5.47
2022-08-26T00:09:16.959Z,6.00
2022-08-26T00:11:44.225Z,5.63
2022-08-26T00:14:11.805Z,6.03
2022-08-26T00:16:40.996Z,6.00
2022-08-26T00:19:13.808Z,6.00
2022-08-26T00:21:41.164Z,6.77
2022-08-26T00:24:07.500Z,5.97
2022-08-26T00:26:34.851Z,5.33
2022-08-26T00:29:01.392Z,6.40
2022-08-26T00:31:27.843Z,5.63
2022-08-26T00:33:57.692Z,6.67
2022-08-26T00:36:24.060Z,6.37
2022-08-26T00:38:50.463Z,5.93
2022-08-26T00:41:18.807Z,5.77
2022-08-26T00:43:47.759Z,7.27
2022-08-26T00:46:16.973Z,6.10
2022-08-26T00:48:44.959Z,6.57
2022-08-26T00:51:14.722Z,7.07
2022-08-26T00:53:45.335Z,6.60
2022-08-26T00:56:20.630Z,6.47
2022-08-26T00:58:48.029Z,6.37
2022-08-26T01:01:15.017Z,7.53
2022-08-26T01:03:41.961Z,6.17
2022-08-26T01:06:12.616Z,7.30
2022-08-26T01:08:39.710Z,5.87
2022-08-26T01:11:06.192Z,7.77
2022-08-26T01:13:36.127Z,5.97
2022-08-26T01:16:03.970Z,6.23
2022-08-26T01:18:31.461Z,6.60
2022-08-26T01:20:57.952Z,5.90
2022-08-26T01:23:28.748Z,6.33
2022-08-26T01:25:57.267Z,6.73
2022-08-26T01:28:29.441Z,6.03
2022-08-26T01:30:57.547Z,6.37
2022-08-26T01:33:28.051Z,7.17
2022-08-26T01:35:55.033Z,8.47
2022-08-26T01:38:23.655Z,6.33
2022-08-26T01:40:50.198Z,6.63
2022-08-26T01:43:19.948Z,5.83
2022-08-26T01:45:48.259Z,6.47
2022-08-26T01:48:17.509Z,7.67
2022-08-26T01:50:45.108Z,6.10
2022-08-26T01:53:12.857Z,6.50
2022-08-26T01:55:41.605Z,6.17
2022-08-26T01:58:09.812Z,6.17
2022-08-26T02:00:36.449Z,8.50
2022-08-26T02:03:17.221Z,7.00
2022-08-26T02:06:00.740Z,6.43
2022-08-26T02:08:31.007Z,6.23
2022-08-26T02:10:57.465Z,6.63
2022-08-26T02:13:25.469Z,6.40
2022-08-26T02:15:52.651Z,7.77
2022-08-26T02:18:19.229Z,6.33
2022-08-26T02:20:45.652Z,6.83
2022-08-26T02:23:12.052Z,6.70
2022-08-26T02:25:45.882Z,6.73
2022-08-26T02:28:12.901Z,7.50
2022-08-26T02:30:40.348Z,7.40
2022-08-26T02:33:07.060Z,6.70
2022-08-26T02:35:35.341Z,6.70
2022-08-26T02:38:02.545Z,6.80
2022-08-26T02:40:40.460Z,8.70
2022-08-26T02:43:08.528Z,6.57
2022-08-26T02:45:35.661Z,6.70
2022-08-26T02:48:09.164Z,6.87
2022-08-26T02:50:36.754Z,6.93
2022-08-26T02:53:03.189Z,6.53
2022-08-26T02:55:29.637Z,6.57
2022-08-26T02:57:56.072Z,7.07
2022-08-26T03:00:22.585Z,7.10
2022-08-26T03:02:50.355Z,7.37
2022-08-26T03:05:19.637Z,7.97
2022-08-26T03:07:46.247Z,7.93
2022-08-26T03:10:13.129Z,9.97
2022-08-26T03:12:41.329Z,7.90
2022-08-26T03:15:16.463Z,7.07
2022-08-26T03:17:44.857Z,8.23
2022-08-26T03:20:11.400Z,6.37
2022-08-26T03:22:40.257Z,8.27
2022-08-26T03:25:08.100Z,6.93
2022-08-26T03:27:34.747Z,6.90
2022-08-26T03:30:19.949Z,7.67
2022-08-26T03:32:46.707Z,7.30
2022-08-26T03:35:13.138Z,7.77
2022-08-26T03:37:40.357Z,8.43
2022-08-26T03:40:09.002Z,7.23
2022-08-26T03:42:36.569Z,6.97
2022-08-26T03:45:03.755Z,6.83
2022-08-26T03:47:31.075Z,7.30
2022-08-26T03:49:57.551Z,7.93
2022-08-26T03:52:24.258Z,6.57
2022-08-26T03:54:51.185Z,8.13
2022-08-26T03:57:17.666Z,7.33
2022-08-26T03:59:45.819Z,7.10
2022-08-26T04:02:12.183Z,8.07
2022-08-26T04:04:38.862Z,8.57
2022-08-26T04:07:05.248Z,7.27
2022-08-26T04:09:31.751Z,7.20
2022-08-26T04:12:03.533Z,8.17
2022-08-26T04:14:31.109Z,7.10
2022-08-26T04:16:58.653Z,7.13
2022-08-26T04:19:25.388Z,7.80
2022-08-26T04:21:55.307Z,7.80
2022-08-26T04:24:22.633Z,7.40
2022-08-26T04:26:49.564Z,9.10
2022-08-26T04:29:20.884Z,7.10
2022-08-26T04:31:51.714Z,7.67
2022-08-26T04:34:28.427Z,9.57
2022-08-26T04:36:56.015Z,7.63
2022-08-26T04:39:22.616Z,7.00
2022-08-26T04:41:50.866Z,7.37
2022-08-26T04:44:17.838Z,9.40
2022-08-26T04:46:44.324Z,8.47
2022-08-26T04:49:11.634Z,9.20
2022-08-26T04:51:39.015Z,8.47
2022-08-26T04:54:06.974Z,8.33
2022-08-26T04:56:35.414Z,8.13
2022-08-26T04:59:02.938Z,8.13
2022-08-26T05:01:31.424Z,8.03
2022-08-26T05:03:58.475Z,8.90
2022-08-26T05:06:26.014Z,8.73
2022-08-26T05:08:53.006Z,7.87
2022-08-26T05:11:19.635Z,9.37
2022-08-26T05:13:48.489Z,7.93
2022-08-26T05:16:15.411Z,7.30
2022-08-26T05:18:43.499Z,7.20
2022-08-26T05:21:21.265Z,8.43
2022-08-26T05:23:48.371Z,7.30
2022-08-26T05:26:16.490Z,8.37
2022-08-26T05:28:43.161Z,7.83
2022-08-26T05:31:17.071Z,7.47
2022-08-26T05:33:44.499Z,7.43
2022-08-26T05:36:16.390Z,7.40
2022-08-26T05:38:43.927Z,8.50
2022-08-26T05:41:18.015Z,7.97
2022-08-26T05:43:44.598Z,7.53
2022-08-26T05:46:11.062Z,10.30
2022-08-26T05:48:37.847Z,7.10
2022-08-26T05:51:06.087Z,8.00
2022-08-26T05:53:33.012Z,7.53
2022-08-26T05:55:59.468Z,8.57
2022-08-26T05:58:26.935Z,9.30
2022-08-26T06:00:57.462Z,7.73
2022-08-26T06:03:23.936Z,7.03
2022-08-26T06:05:50.327Z,9.70
2022-08-26T06:08:19.280Z,9.90
2022-08-26T06:10:52.873Z,8.47
2022-08-26T06:13:31.991Z,10.23
2022-08-26T06:15:59.303Z,8.87
2022-08-26T06:18:27.893Z,8.33
2022-08-26T06:20:57.609Z,6.80
2022-08-26T06:23:43.175Z,8.10
2022-08-26T06:26:11.055Z,7.90
2022-08-26T06:28:37.724Z,7.00
2022-08-26T06:31:04.498Z,8.93
2022-08-26T06:33:32.406Z,7.90
2022-08-26T06:35:58.970Z,8.00
2022-08-26T06:38:25.422Z,7.47
2022-08-26T06:40:54.792Z,8.33
2022-08-26T06:43:22.684Z,8.63
2022-08-26T06:45:50.105Z,7.47
2022-08-26T06:48:18.204Z,7.53
2022-08-26T06:50:45.239Z,9.30
2022-08-26T06:53:12.807Z,6.87
2022-08-26T06:55:43.237Z,7.30
2022-08-26T06:58:11.192Z,7.17
2022-08-26T07:00:38.482Z,6.43
2022-08-26T07:03:08.464Z,6.73
2022-08-26T07:05:35.898Z,7.10
2022-08-26T07:08:03.017Z,9.10
2022-08-26T07:10:29.619Z,7.67
2022-08-26T07:12:56.028Z,6.83
2022-08-26T07:15:27.191Z,6.47
2022-08-26T07:17:58.436Z,7.47
2022-08-26T07:20:25.015Z,6.30
2022-08-26T07:22:51.460Z,11.73
2022-08-26T07:25:19.275Z,6.47
2022-08-26T07:27:46.643Z,8.30
2022-08-26T07:30:20.749Z,8.50
2022-08-26T07:32:47.447Z,6.13
2022-08-26T07:35:14.562Z,7.47
2022-08-26T07:37:40.941Z,5.93
2022-08-26T07:40:07.627Z,6.90
2022-08-26T07:42:35.816Z,5.63
2022-08-26T07:45:02.212Z,6.30
2022-08-26T07:47:28.610Z,5.40
2022-08-26T07:49:56.194Z,5.43
2022-08-26T07:52:26.374Z,5.20
2022-08-26T07:54:53.347Z,6.00
2022-08-26T07:57:19.741Z,5.53
2022-08-26T07:59:47.354Z,5.93
2022-08-26T08:02:13.707Z,5.70
2022-08-26T08:04:40.268Z,5.90
2022-08-26T08:07:10.575Z,5.80
2022-08-26T08:09:38.413Z,5.65
2022-08-26T08:12:07.284Z,5.90
2022-08-26T08:14:36.423Z,5.35
2022-08-26T08:17:04.306Z,5.97
2022-08-26T08:19:36.766Z,9.45
2022-08-26T08:22:17.085Z,5.60
2022-08-26T08:24:44.918Z,5.82
2022-08-26T08:27:11.313Z,6.53
2022-08-26T08:29:38.592Z,5.45
2022-08-26T08:32:05.378Z,5.82
2022-08-26T08:34:32.164Z,6.32
2022-08-26T08:36:59.377Z,5.72
2022-08-26T08:39:26.610Z,8.13
2022-08-26T08:42:12.215Z,5.90
2022-08-26T08:44:42.168Z,5.60
2022-08-26T08:47:18.095Z,5.95
2022-08-26T08:49:44.664Z,6.00
2022-08-26T08:52:18.287Z,5.93
2022-08-26T08:54:46.301Z,5.93
2022-08-26T08:57:17.353Z,6.30
2022-08-26T08:59:54.887Z,6.07
2022-08-26T09:02:30.477Z,6.27
2022-08-26T09:05:15.334Z,6.57
2022-08-26T09:07:54.125Z,6.33
2022-08-26T09:10:21.466Z,6.47
2022-08-26T09:12:50.572Z,5.82
2022-08-26T09:15:30.397Z,7.93
2022-08-26T09:18:10.917Z,5.70
2022-08-26T09:20:37.395Z,6.13
2022-08-26T09:23:03.816Z,6.03
2022-08-26T09:25:31.426Z,8.90
2022-08-26T09:27:58.014Z,6.50
2022-08-26T09:30:26.588Z,6.03
2022-08-26T09:33:10.814Z,5.82
2022-08-26T09:35:46.913Z,6.03
2022-08-26T09:38:27.990Z,5.60
2022-08-26T09:41:02.235Z,6.43
2022-08-26T09:43:31.647Z,6.25
2022-08-26T09:46:13.185Z,6.22
2022-08-26T09:48:41.465Z,10.73
2022-08-26T09:51:23.115Z,5.78
2022-08-26T09:53:51.248Z,7.07
2022-08-26T09:56:25.554Z,6.13
2022-08-26T09:58:54.635Z,5.78
2022-08-26T10:01:24.095Z,8.32
2022-08-26T10:03:51.386Z,6.10
2022-08-26T10:06:17.925Z,5.38
2022-08-26T10:08:49.833Z,5.35
2022-08-26T10:11:31.277Z,6.65
2022-08-26T10:14:01.502Z,5.85
2022-08-26T10:16:35.870Z,6.45
2022-08-26T10:19:06.283Z,6.63
2022-08-26T10:21:36.888Z,6.30
2022-08-26T10:24:04.329Z,5.90
2022-08-26T10:26:50.656Z,5.72
2022-08-26T10:29:21.191Z,5.90
2022-08-26T10:31:55.117Z,6.07
2022-08-26T10:34:29.079Z,6.87
2022-08-26T10:37:13.810Z,6.00
2022-08-26T10:40:05.385Z,5.80
2022-08-26T10:42:32.332Z,9.27
2022-08-26T10:45:03.377Z,5.90
2022-08-26T10:47:45.473Z,6.13
2022-08-26T10:50:12.843Z,5.82
2022-08-26T10:52:58.080Z,5.07
2022-08-26T10:55:29.822Z,7.90
2022-08-26T10:58:26.455Z,5.67
2022-08-26T11:01:17.569Z,6.07
2022-08-26T11:03:58.898Z,6.53
2022-08-26T11:06:27.933Z,5.83
2022-08-26T11:08:59.576Z,6.67
2022-08-26T11:11:46.860Z,5.80
2022-08-26T11:14:29.872Z,7.37
2022-08-26T11:16:58.954Z,6.70
2022-08-26T11:19:57.051Z,7.00
2022-08-26T11:22:24.713Z,6.57
2022-08-26T11:24:57.166Z,6.37
2022-08-26T11:27:24.184Z,8.50
2022-08-26T11:30:02.616Z,6.68
2022-08-26T11:32:35.187Z,7.22
2022-08-26T11:35:04.594Z,6.70
2022-08-26T11:37:42.496Z,7.88
2022-08-26T11:40:17.941Z,7.13
2022-08-26T11:42:49.563Z,9.52
2022-08-26T11:45:18.497Z,8.10
2022-08-26T11:47:46.508Z,8.23
2022-08-26T11:50:20.182Z,8.10
2022-08-26T11:53:01.992Z,8.07
2022-08-26T11:55:29.749Z,9.33
2022-08-26T11:57:57.855Z,9.43
2022-08-26T12:00:26.467Z,9.83
2022-08-26T12:02:53.426Z,8.60
2022-08-26T12:05:26.817Z,7.72
2022-08-26T12:07:59.310Z,6.88
2022-08-26T12:10:33.628Z,7.43
2022-08-26T12:13:01.057Z,7.47
2022-08-26T12:15:29.522Z,9.05
2022-08-26T12:17:56.810Z,8.50
2022-08-26T12:20:46.444Z,6.60
2022-08-26T12:23:22.795Z,7.00
2022-08-26T12:25:51.975Z,7.00
2022-08-26T12:28:19.480Z,6.95
2022-08-26T12:30:59.771Z,7.57
2022-08-26T12:33:27.893Z,7.47
2022-08-26T12:35:56.402Z,9.65
2022-08-26T12:38:23.937Z,8.20
2022-08-26T12:40:50.431Z,11.70
2022-08-26T12:43:36.136Z,8.18
2022-08-26T12:46:04.582Z,7.90
2022-08-26T12:48:35.974Z,8.70
2022-08-26T12:51:03.091Z,7.43
2022-08-26T12:53:31.648Z,8.40
2022-08-26T12:56:18.513Z,8.45
2022-08-26T12:58:45.163Z,9.00
2022-08-26T13:01:11.676Z,8.20
2022-08-26T13:03:46.350Z,9.13
2022-08-26T13:06:16.783Z,10.88
2022-08-26T13:08:58.473Z,10.67
2022-08-26T13:11:24.848Z,9.70
2022-08-26T13:13:53.516Z,10.03
2022-08-26T13:16:20.803Z,12.07
2022-08-26T13:18:51.687Z,12.33
2022-08-26T13:21:19.577Z,10.13
2022-08-26T13:23:46.304Z,10.87
2022-08-26T13:26:12.775Z,10.90
2022-08-26T13:28:39.280Z,11.37
2022-08-26T13:31:06.299Z,12.17
2022-08-26T13:33:33.272Z,12.37
2022-08-26T13:36:00.379Z,12.53
2022-08-26T13:38:33.629Z,9.47
2022-08-26T13:41:00.720Z,9.80
2022-08-26T13:43:27.577Z,11.07
2022-08-26T13:45:54.224Z,12.10
2022-08-26T13:48:23.356Z,9.47
2022-08-26T13:50:50.001Z,9.43
2022-08-26T13:53:16.905Z,11.27
2022-08-26T13:55:43.426Z,10.37
2022-08-26T13:58:10.732Z,9.73
2022-08-26T14:00:37.905Z,11.27
2022-08-26T14:03:04.765Z,9.43
2022-08-26T14:05:31.215Z,14.17
2022-08-26T14:07:57.644Z,10.43
2022-08-26T14:10:24.598Z,10.93
2022-08-26T14:12:51.149Z,10.40
2022-08-26T14:15:18.609Z,14.47
2022-08-26T14:17:46.601Z,11.50
2022-08-26T14:20:14.539Z,20.27
2022-08-26T14:22:52.139Z,16.40
2022-08-26T14:25:29.444Z,21.73
2022-08-26T14:27:56.857Z,13.90
2022-08-26T14:30:23.282Z,14.83
2022-08-26T14:32:51.772Z,14.00
2022-08-26T14:35:20.388Z,14.27
2022-08-26T14:37:47.095Z,17.60
2022-08-26T14:40:14.045Z,15.70
2022-08-26T14:42:41.527Z,14.73
2022-08-26T14:45:09.575Z,18.47
2022-08-26T14:47:35.925Z,14.53
2022-08-26T14:50:02.271Z,15.20
2022-08-26T14:52:29.618Z,14.50
2022-08-26T14:54:56.030Z,16.00
2022-08-26T14:57:22.440Z,12.13
2022-08-26T14:59:50.475Z,12.83
2022-08-26T15:02:32.368Z,12.60
2022-08-26T15:05:00.146Z,15.00
2022-08-26T15:07:26.517Z,14.07
2022-08-26T15:09:53.048Z,16.70
2022-08-26T15:12:19.478Z,15.17
2022-08-26T15:14:45.879Z,14.33
2022-08-26T15:17:12.970Z,15.07
2022-08-26T15:19:39.345Z,14.07
2022-08-26T15:22:05.835Z,13.07
2022-08-26T15:24:32.187Z,16.33
2022-08-26T15:26:58.612Z,16.37
2022-08-26T15:29:25.098Z,15.27
2022-08-26T15:31:51.681Z,18.87
2022-08-26T15:34:21.792Z,18.47
2022-08-26T15:36:48.234Z,20.83
2022-08-26T15:39:15.550Z,18.57
2022-08-26T15:41:41.924Z,16.03
2022-08-26T15:44:09.078Z,22.17
2022-08-26T15:46:35.671Z,19.13
2022-08-26T15:49:04.346Z,16.83
2022-08-26T15:51:32.225Z,17.53
2022-08-26T15:53:58.709Z,21.13
2022-08-26T15:56:26.179Z,20.53
2022-08-26T15:58:54.917Z,21.20
2022-08-26T16:01:27.100Z,20.77
2022-08-26T16:03:54.699Z,23.30
2022-08-26T16:06:23.260Z,25.73
2022-08-26T16:08:50.019Z,23.63
2022-08-26T16:11:18.844Z,23.17
2022-08-26T16:13:46.060Z,21.80
2022-08-26T16:16:12.552Z,22.23
2022-08-26T16:18:39.166Z,24.70
2022-08-26T16:21:13.133Z,19.13
2022-08-26T16:23:40.886Z,21.43
2022-08-26T16:26:14.220Z,20.50
2022-08-26T16:28:40.631Z,22.83
2022-08-26T16:31:07.251Z,22.10
2022-08-26T16:33:33.697Z,22.70
2022-08-26T16:36:00.159Z,26.87
2022-08-26T16:38:26.728Z,22.57
2022-08-26T16:40:53.099Z,27.33
2022-08-26T16:43:19.517Z,22.03
2022-08-26T16:45:45.953Z,21.17
2022-08-26T16:48:12.663Z,19.23
2022-08-26T16:50:40.655Z,24.63
2022-08-26T16:53:07.121Z,22.03
2022-08-26T16:55:34.134Z,21.93
2022-08-26T16:58:00.507Z,23.23
2022-08-26T17:00:28.141Z,23.60
2022-08-26T17:02:55.222Z,21.30
2022-08-26T17:05:22.794Z,23.10
2022-08-26T17:07:49.265Z,21.23
2022-08-26T17:10:15.678Z,20.77
2022-08-26T17:12:42.118Z,21.37
2022-08-26T17:15:09.518Z,22.03
2022-08-26T17:17:36.061Z,22.57
2022-08-26T17:20:08.784Z,19.27
2022-08-26T17:22:35.868Z,20.77
2022-08-26T17:25:02.763Z,23.03
2022-08-26T17:27:30.111Z,24.00
2022-08-26T17:29:56.489Z,24.17
2022-08-26T17:32:22.999Z,24.07
2022-08-26T17:34:49.387Z,24.57
2022-08-26T17:37:16.795Z,25.63
2022-08-26T17:39:43.985Z,23.43
2022-08-26T17:42:11.836Z,24.77
2022-08-26T17:44:38.516Z,26.03
2022-08-26T17:47:06.579Z,22.37
2022-08-26T17:49:33.208Z,22.10
2022-08-26T17:52:00.090Z,24.77
2022-08-26T17:54:27.478Z,27.53
2022-08-26T17:56:57.149Z,27.87
2022-08-26T17:59:23.614Z,26.83
2022-08-26T18:01:58.598Z,28.57
2022-08-26T18:04:25.090Z,26.67
2022-08-26T18:06:51.480Z,31.03
2022-08-26T18:09:17.933Z,30.07
2022-08-26T18:11:44.310Z,29.10
2022-08-26T18:14:10.741Z,27.57
2022-08-26T18:16:41.592Z,31.53
2022-08-26T18:19:08.267Z,29.67
2022-08-26T18:21:36.186Z,29.57
2022-08-26T18:24:03.209Z,34.67
2022-08-26T18:26:31.306Z,32.00
2022-08-26T18:28:57.825Z,31.70
2022-08-26T18:31:24.595Z,35.17
2022-08-26T18:33:51.420Z,31.30
2022-08-26T18:36:19.392Z,30.83
2022-08-26T18:38:46.650Z,33.17
2022-08-26T18:41:13.050Z,32.97
2022-08-26T18:43:39.567Z,33.13
2022-08-26T18:46:07.094Z,32.20
2022-08-26T18:48:33.645Z,35.50
2022-08-26T18:51:00.250Z,32.93
2022-08-26T18:53:27.409Z,32.83
2022-08-26T18:55:53.825Z,31.33
2022-08-26T18:58:20.556Z,28.63
2022-08-26T19:00:47.191Z,29.90
2022-08-26T19:03:19.133Z,29.33
2022-08-26T19:05:45.788Z,28.60
2022-08-26T19:08:12.268Z,29.13
2022-08-26T19:10:39.223Z,30.00
2022-08-26T19:13:07.038Z,28.80
2022-08-26T19:15:37.212Z,27.63
2022-08-26T19:18:03.727Z,29.27
2022-08-26T19:20:30.083Z,25.97
2022-08-26T19:22:59.669Z,28.63
2022-08-26T19:25:28.965Z,28.50
2022-08-26T19:27:55.364Z,27.47
2022-08-26T19:30:21.811Z,24.93
2022-08-26T19:32:48.181Z,25.73
2022-08-26T19:35:15.010Z,27.17
2022-08-26T19:37:41.585Z,29.17
2022-08-26T19:40:08.410Z,30.10
2022-08-26T19:42:34.955Z,29.23
2022-08-26T19:45:24.946Z,26.57
2022-08-26T19:47:52.905Z,28.03
2022-08-26T19:50:19.752Z,28.13
2022-08-26T19:52:46.137Z,25.67
2022-08-26T19:55:12.957Z,29.97
2022-08-26T19:57:40.151Z,27.37
2022-08-26T20:00:09.437Z,29.30
2022-08-26T20:02:36.175Z,27.20
2022-08-26T20:05:03.509Z,28.77
2022-08-26T20:07:29.878Z,26.57
2022-08-26T20:09:56.282Z,24.47
2022-08-26T20:12:22.867Z,24.83
2022-08-26T20:14:49.551Z,27.10
2022-08-26T20:17:17.015Z,28.27
2022-08-26T20:20:02.198Z,28.73
2022-08-26T20:22:28.832Z,28.03
2022-08-26T20:24:55.419Z,29.03
2022-08-26T20:27:30.795Z,26.63
2022-08-26T20:30:05.635Z,27.37
2022-08-26T20:32:35.490Z,26.33
2022-08-26T20:35:02.303Z,29.27
2022-08-26T20:37:29.220Z,30.37
2022-08-26T20:39:55.819Z,26.57
2022-08-26T20:42:22.210Z,25.63
2022-08-26T20:44:54.649Z,27.40
2022-08-26T20:47:21.592Z,27.10
2022-08-26T20:49:48.084Z,25.77
2022-08-26T20:52:18.660Z,32.87
2022-08-26T20:54:45.037Z,29.13
2022-08-26T20:57:11.575Z,26.00
2022-08-26T20:59:38.006Z,27.33
2022-08-26T21:02:04.378Z,31.37
2022-08-26T21:04:30.786Z,27.17
2022-08-26T21:06:58.251Z,29.00
2022-08-26T21:09:25.623Z,30.20
2022-08-26T21:11:52.692Z,27.50
2022-08-26T21:14:20.400Z,28.00
2022-08-26T21:16:47.075Z,31.40
2022-08-26T21:19:14.972Z,33.23
2022-08-26T21:21:41.943Z,28.27
2022-08-26T21:24:08.711Z,33.20
2022-08-26T21:26:35.188Z,32.23
2022-08-26T21:29:02.456Z,29.77
2022-08-26T21:31:29.737Z,33.40
2022-08-26T21:33:56.486Z,31.97
2022-08-26T21:36:22.994Z,34.13
2022-08-26T21:38:49.543Z,31.13
2022-08-26T21:41:19.327Z,29.80
2022-08-26T21:43:46.714Z,35.00
2022-08-26T21:46:15.465Z,32.60
2022-08-26T21:48:46.596Z,29.87
2022-08-26T21:51:16.223Z,35.90
2022-08-26T21:53:42.897Z,32.40
2022-08-26T21:56:11.511Z,33.37
2022-08-26T21:58:38.177Z,32.33
2022-08-26T22:01:07.551Z,33.70
2022-08-26T22:03:35.210Z,33.30
2022-08-26T22:06:13.621Z,32.67
2022-08-26T22:08:40.050Z,34.37
2022-08-26T22:11:06.470Z,35.63
2022-08-26T22:13:34.364Z,32.93
2022-08-26T22:16:01.290Z,32.27
2022-08-26T22:18:28.804Z,33.67
2022-08-26T22:20:58.244Z,37.10
2022-08-26T22:23:24.655Z,31.73
2022-08-26T22:25:51.102Z,36.70
2022-08-26T22:28:17.584Z,31.33
2022-08-26T22:30:44.948Z,31.60
2022-08-26T22:33:11.404Z,31.43
2022-08-26T22:35:38.514Z,30.67
2022-08-26T22:38:04.910Z,36.43
2022-08-26T22:40:31.480Z,35.43
2022-08-26T22:43:00.220Z,33.70
2022-08-26T22:45:27.298Z,29.80
2022-08-26T22:47:53.782Z,32.33
2022-08-26T22:50:20.171Z,35.13
2022-08-26T22:52:46.548Z,32.70
2022-08-26T22:55:12.926Z,30.40
2022-08-26T22:57:39.323Z,30.60
2022-08-26T23:00:06.301Z,34.13
2022-08-26T23:02:32.924Z,31.63
2022-08-26T23:04:59.306Z,31.50
2022-08-26T23:07:25.704Z,31.63
2022-08-26T23:09:52.089Z,31.50
2022-08-26T23:12:18.482Z,32.20
2022-08-26T23:14:44.911Z,30.30
2022-08-26T23:17:11.788Z,31.50
2022-08-26T23:19:38.144Z,29.57
2022-08-26T23:22:04.589Z,32.27
2022-08-26T23:24:31.018Z,28.77
2022-08-26T23:26:57.795Z,28.50
2022-08-26T23:29:24.166Z,30.30
2022-08-26T23:31:50.729Z,29.37
2022-08-26T23:34:35.807Z,33.90
2022-08-26T23:37:02.865Z,31.90
2022-08-26T23:39:32.872Z,33.47
2022-08-26T23:42:01.589Z,36.43
2022-08-26T23:44:30.421Z,33.63
2022-08-26T23:46:57.796Z,35.33
2022-08-26T23:49:24.745Z,31.70
2022-08-26T23:52:09.953Z,30.37
2022-08-26T23:54:36.631Z,38.03
2022-08-26T23:57:03.277Z,37.37
2022-08-26T23:59:29.718Z,37.23
